sensor_id;sensor_type;location;lat;lon;timestamp;P1;durP1;ratioP1;P2;durP2;ratioP2
41514;SDS011;27247;48.020;16.720;2022-12-15T00:03:28;103.43;;;42.47;;
41514;SDS011;27247;48.020;16.720;2022-12-15T00:08:04;100.00;;;40.47;;
41514;SDS011;27247;48.020;16.720;2022-12-15T00:12:35;102.15;;;40.47;;
41514;SDS011;27247;48.020;16.720;2022-12-15T00:21:32;102.10;;;42.58;;
41514;SDS011;27247;48.020;16.720;2022-12-15T00:30:30;107.80;;;41.72;;
41514;SDS011;27247;48.020;16.720;2022-12-15T00:34:59;99.80;;;44.67;;
41514;SDS011;27247;48.020;16.720;2022-12-15T00:43:38;103.35;;;40.42;;
41514;SDS011;27247;48.020;16.720;2022-12-15T00:47:48;105.15;;;44.47;;
41514;SDS011;27247;48.020;16.720;2022-12-15T00:51:59;107.53;;;45.03;;
41514;SDS011;27247;48.020;16.720;2022-12-15T00:56:28;104.18;;;41.67;;
41514;SDS011;27247;48.020;16.720;2022-12-15T01:01:04;107.05;;;44.58;;
41514;SDS011;27247;48.020;16.720;2022-12-15T01:05:33;115.60;;;47.88;;
41514;SDS011;27247;48.020;16.720;2022-12-15T01:10:03;106.85;;;42.67;;
41514;SDS011;27247;48.020;16.720;2022-12-15T01:14:32;121.10;;;46.70;;
41514;SDS011;27247;48.020;16.720;2022-12-15T01:19:02;124.50;;;46.95;;
41514;SDS011;27247;48.020;16.720;2022-12-15T01:27:41;113.63;;;44.60;;
41514;SDS011;27247;48.020;16.720;2022-12-15T01:31:52;118.18;;;47.53;;
41514;SDS011;27247;48.020;16.720;2022-12-15T01:36:02;111.13;;;43.30;;
41514;SDS011;27247;48.020;16.720;2022-12-15T01:40:14;116.25;;;44.78;;
41514;SDS011;27247;48.020;16.720;2022-12-15T01:44:45;121.60;;;45.47;;
41514;SDS011;27247;48.020;16.720;2022-12-15T01:48:59;114.13;;;46.10;;
41514;SDS011;27247;48.020;16.720;2022-12-15T01:53:23;109.85;;;46.05;;
41514;SDS011;27247;48.020;16.720;2022-12-15T01:57:36;120.10;;;45.20;;
41514;SDS011;27247;48.020;16.720;2022-12-15T02:01:46;108.38;;;46.10;;
41514;SDS011;27247;48.020;16.720;2022-12-15T02:05:59;117.53;;;46.30;;
41514;SDS011;27247;48.020;16.720;2022-12-15T02:10:10;107.45;;;45.85;;
41514;SDS011;27247;48.020;16.720;2022-12-15T02:14:31;107.43;;;44.08;;
41514;SDS011;27247;48.020;16.720;2022-12-15T02:18:58;113.75;;;44.70;;
41514;SDS011;27247;48.020;16.720;2022-12-15T02:28:06;109.28;;;45.47;;
41514;SDS011;27247;48.020;16.720;2022-12-15T02:32:23;103.72;;;42.90;;
41514;SDS011;27247;48.020;16.720;2022-12-15T02:36:42;101.47;;;43.92;;
41514;SDS011;27247;48.020;16.720;2022-12-15T02:40:57;107.00;;;45.75;;
41514;SDS011;27247;48.020;16.720;2022-12-15T02:45:11;105.97;;;43.33;;
41514;SDS011;27247;48.020;16.720;2022-12-15T03:03:22;108.80;;;47.33;;
41514;SDS011;27247;48.020;16.720;2022-12-15T03:07:33;104.70;;;44.08;;
41514;SDS011;27247;48.020;16.720;2022-12-15T03:11:44;111.25;;;44.42;;
41514;SDS011;27247;48.020;16.720;2022-12-15T03:15:54;106.70;;;43.53;;
41514;SDS011;27247;48.020;16.720;2022-12-15T03:20:04;110.07;;;44.63;;
41514;SDS011;27247;48.020;16.720;2022-12-15T03:24:15;105.53;;;42.70;;
41514;SDS011;27247;48.020;16.720;2022-12-15T03:28:25;105.50;;;42.35;;
41514;SDS011;27247;48.020;16.720;2022-12-15T03:32:36;106.55;;;42.35;;
41514;SDS011;27247;48.020;16.720;2022-12-15T03:36:46;113.63;;;45.55;;
41514;SDS011;27247;48.020;16.720;2022-12-15T03:40:57;110.43;;;43.85;;
41514;SDS011;27247;48.020;16.720;2022-12-15T03:45:07;105.78;;;44.55;;
41514;SDS011;27247;48.020;16.720;2022-12-15T03:49:18;101.80;;;42.45;;
41514;SDS011;27247;48.020;16.720;2022-12-15T03:53:28;104.32;;;43.17;;
41514;SDS011;27247;48.020;16.720;2022-12-15T03:57:39;101.68;;;43.67;;
41514;SDS011;27247;48.020;16.720;2022-12-15T04:01:49;100.70;;;42.65;;
41514;SDS011;27247;48.020;16.720;2022-12-15T04:05:59;101.83;;;40.03;;
41514;SDS011;27247;48.020;16.720;2022-12-15T04:10:10;98.00;;;41.03;;
41514;SDS011;27247;48.020;16.720;2022-12-15T04:14:21;95.18;;;40.72;;
41514;SDS011;27247;48.020;16.720;2022-12-15T04:18:31;109.50;;;42.88;;
41514;SDS011;27247;48.020;16.720;2022-12-15T04:22:43;100.30;;;43.45;;
41514;SDS011;27247;48.020;16.720;2022-12-15T04:26:55;101.68;;;41.60;;
41514;SDS011;27247;48.020;16.720;2022-12-15T04:31:26;100.47;;;40.80;;
41514;SDS011;27247;48.020;16.720;2022-12-15T04:35:57;100.03;;;41.10;;
41514;SDS011;27247;48.020;16.720;2022-12-15T04:40:26;92.68;;;40.33;;
41514;SDS011;27247;48.020;16.720;2022-12-15T04:44:56;97.13;;;39.85;;
41514;SDS011;27247;48.020;16.720;2022-12-15T04:49:27;95.13;;;41.55;;
41514;SDS011;27247;48.020;16.720;2022-12-15T04:58:25;97.03;;;40.50;;
41514;SDS011;27247;48.020;16.720;2022-12-15T05:07:23;92.15;;;37.03;;
41514;SDS011;27247;48.020;16.720;2022-12-15T05:11:53;90.72;;;40.33;;
41514;SDS011;27247;48.020;16.720;2022-12-15T05:16:22;97.20;;;42.67;;
41514;SDS011;27247;48.020;16.720;2022-12-15T05:20:51;98.57;;;41.75;;
41514;SDS011;27247;48.020;16.720;2022-12-15T05:29:52;92.45;;;39.63;;
41514;SDS011;27247;48.020;16.720;2022-12-15T05:38:32;99.80;;;40.90;;
41514;SDS011;27247;48.020;16.720;2022-12-15T05:42:42;97.88;;;41.83;;
41514;SDS011;27247;48.020;16.720;2022-12-15T05:46:53;96.47;;;40.50;;
41514;SDS011;27247;48.020;16.720;2022-12-15T05:51:07;103.22;;;43.95;;
41514;SDS011;27247;48.020;16.720;2022-12-15T05:55:19;102.15;;;42.40;;
41514;SDS011;27247;48.020;16.720;2022-12-15T05:59:29;96.32;;;40.97;;
41514;SDS011;27247;48.020;16.720;2022-12-15T06:03:40;103.13;;;43.03;;
41514;SDS011;27247;48.020;16.720;2022-12-15T06:07:51;96.63;;;40.50;;
41514;SDS011;27247;48.020;16.720;2022-12-15T06:12:01;97.67;;;41.57;;
41514;SDS011;27247;48.020;16.720;2022-12-15T06:16:13;103.95;;;44.33;;
41514;SDS011;27247;48.020;16.720;2022-12-15T06:20:24;116.82;;;51.55;;
41514;SDS011;27247;48.020;16.720;2022-12-15T06:24:35;107.55;;;44.33;;
41514;SDS011;27247;48.020;16.720;2022-12-15T06:28:45;103.47;;;43.83;;
41514;SDS011;27247;48.020;16.720;2022-12-15T06:32:56;107.85;;;44.03;;
41514;SDS011;27247;48.020;16.720;2022-12-15T06:37:06;105.97;;;41.72;;
41514;SDS011;27247;48.020;16.720;2022-12-15T06:41:18;106.90;;;43.53;;
41514;SDS011;27247;48.020;16.720;2022-12-15T06:45:30;103.28;;;43.85;;
41514;SDS011;27247;48.020;16.720;2022-12-15T06:49:40;115.63;;;45.23;;
41514;SDS011;27247;48.020;16.720;2022-12-15T06:53:50;102.88;;;42.65;;
41514;SDS011;27247;48.020;16.720;2022-12-15T06:58:05;101.57;;;43.33;;
41514;SDS011;27247;48.020;16.720;2022-12-15T07:02:15;103.18;;;43.90;;
41514;SDS011;27247;48.020;16.720;2022-12-15T07:06:26;104.43;;;43.85;;
41514;SDS011;27247;48.020;16.720;2022-12-15T07:10:41;108.68;;;47.03;;
41514;SDS011;27247;48.020;16.720;2022-12-15T07:14:53;115.28;;;48.00;;
41514;SDS011;27247;48.020;16.720;2022-12-15T07:19:03;104.88;;;44.42;;
41514;SDS011;27247;48.020;16.720;2022-12-15T07:23:13;96.20;;;41.97;;
41514;SDS011;27247;48.020;16.720;2022-12-15T07:27:24;107.32;;;46.22;;
41514;SDS011;27247;48.020;16.720;2022-12-15T07:31:34;101.35;;;44.13;;
41514;SDS011;27247;48.020;16.720;2022-12-15T07:35:51;108.50;;;45.63;;
41514;SDS011;27247;48.020;16.720;2022-12-15T07:40:03;106.43;;;47.03;;
41514;SDS011;27247;48.020;16.720;2022-12-15T07:44:14;108.90;;;47.60;;
41514;SDS011;27247;48.020;16.720;2022-12-15T07:48:25;109.43;;;45.67;;
41514;SDS011;27247;48.020;16.720;2022-12-15T07:52:36;107.88;;;46.03;;
41514;SDS011;27247;48.020;16.720;2022-12-15T07:56:46;110.18;;;48.40;;
41514;SDS011;27247;48.020;16.720;2022-12-15T08:00:57;121.25;;;49.35;;
41514;SDS011;27247;48.020;16.720;2022-12-15T08:05:12;122.43;;;51.13;;
41514;SDS011;27247;48.020;16.720;2022-12-15T08:09:23;114.55;;;48.42;;
41514;SDS011;27247;48.020;16.720;2022-12-15T08:13:34;120.78;;;49.45;;
41514;SDS011;27247;48.020;16.720;2022-12-15T08:17:45;107.00;;;46.72;;
41514;SDS011;27247;48.020;16.720;2022-12-15T08:21:56;110.57;;;48.22;;
41514;SDS011;27247;48.020;16.720;2022-12-15T08:26:08;109.53;;;46.28;;
41514;SDS011;27247;48.020;16.720;2022-12-15T08:30:20;105.78;;;45.20;;
41514;SDS011;27247;48.020;16.720;2022-12-15T08:34:31;106.80;;;46.17;;
41514;SDS011;27247;48.020;16.720;2022-12-15T08:38:42;111.32;;;46.63;;
41514;SDS011;27247;48.020;16.720;2022-12-15T08:42:54;108.28;;;46.80;;
41514;SDS011;27247;48.020;16.720;2022-12-15T08:47:05;105.67;;;46.93;;
41514;SDS011;27247;48.020;16.720;2022-12-15T08:51:16;106.18;;;48.17;;
41514;SDS011;27247;48.020;16.720;2022-12-15T08:55:26;113.43;;;50.10;;
41514;SDS011;27247;48.020;16.720;2022-12-15T08:59:37;113.72;;;48.70;;
41514;SDS011;27247;48.020;16.720;2022-12-15T09:03:47;102.72;;;46.38;;
41514;SDS011;27247;48.020;16.720;2022-12-15T09:07:58;106.22;;;46.30;;
41514;SDS011;27247;48.020;16.720;2022-12-15T09:12:11;110.20;;;46.63;;
41514;SDS011;27247;48.020;16.720;2022-12-15T09:16:22;109.78;;;46.88;;
41514;SDS011;27247;48.020;16.720;2022-12-15T09:20:33;110.13;;;45.72;;
41514;SDS011;27247;48.020;16.720;2022-12-15T09:24:44;110.03;;;46.38;;
41514;SDS011;27247;48.020;16.720;2022-12-15T09:28:55;111.10;;;46.30;;
41514;SDS011;27247;48.020;16.720;2022-12-15T09:33:06;112.20;;;47.10;;
41514;SDS011;27247;48.020;16.720;2022-12-15T09:37:16;110.43;;;46.88;;
41514;SDS011;27247;48.020;16.720;2022-12-15T09:41:31;110.10;;;47.42;;
41514;SDS011;27247;48.020;16.720;2022-12-15T09:45:44;113.43;;;47.58;;
41514;SDS011;27247;48.020;16.720;2022-12-15T09:50:11;102.43;;;44.85;;
41514;SDS011;27247;48.020;16.720;2022-12-15T09:54:23;102.85;;;45.22;;
41514;SDS011;27247;48.020;16.720;2022-12-15T09:58:42;106.03;;;47.10;;
41514;SDS011;27247;48.020;16.720;2022-12-15T10:03:08;116.03;;;50.17;;
41514;SDS011;27247;48.020;16.720;2022-12-15T10:07:32;117.70;;;48.70;;
41514;SDS011;27247;48.020;16.720;2022-12-15T10:12:12;111.65;;;48.55;;
41514;SDS011;27247;48.020;16.720;2022-12-15T10:21:15;105.10;;;45.80;;
41514;SDS011;27247;48.020;16.720;2022-12-15T10:25:26;112.07;;;47.03;;
41514;SDS011;27247;48.020;16.720;2022-12-15T10:29:42;105.93;;;46.10;;
41514;SDS011;27247;48.020;16.720;2022-12-15T10:34:02;110.68;;;45.20;;
41514;SDS011;27247;48.020;16.720;2022-12-15T10:38:32;106.68;;;45.22;;
41514;SDS011;27247;48.020;16.720;2022-12-15T10:42:48;105.77;;;45.10;;
41514;SDS011;27247;48.020;16.720;2022-12-15T10:47:04;100.82;;;44.80;;
41514;SDS011;27247;48.020;16.720;2022-12-15T10:51:19;105.55;;;46.72;;
41514;SDS011;27247;48.020;16.720;2022-12-15T10:55:37;104.32;;;45.88;;
41514;SDS011;27247;48.020;16.720;2022-12-15T10:59:49;107.00;;;45.13;;
41514;SDS011;27247;48.020;16.720;2022-12-15T11:04:01;108.25;;;45.83;;
41514;SDS011;27247;48.020;16.720;2022-12-15T11:08:13;115.20;;;48.75;;
41514;SDS011;27247;48.020;16.720;2022-12-15T11:12:27;121.65;;;49.83;;
41514;SDS011;27247;48.020;16.720;2022-12-15T11:16:58;120.28;;;49.10;;
41514;SDS011;27247;48.020;16.720;2022-12-15T11:21:23;121.65;;;48.95;;
41514;SDS011;27247;48.020;16.720;2022-12-15T11:25:42;127.10;;;51.15;;
41514;SDS011;27247;48.020;16.720;2022-12-15T11:34:13;114.03;;;48.33;;
41514;SDS011;27247;48.020;16.720;2022-12-15T11:51:54;131.20;;;50.05;;
41514;SDS011;27247;48.020;16.720;2022-12-15T11:56:13;129.60;;;52.33;;
41514;SDS011;27247;48.020;16.720;2022-12-15T12:09:45;135.80;;;52.40;;
41514;SDS011;27247;48.020;16.720;2022-12-15T12:18:37;119.88;;;48.20;;
41514;SDS011;27247;48.020;16.720;2022-12-15T12:23:04;125.53;;;49.30;;
41514;SDS011;27247;48.020;16.720;2022-12-15T12:27:37;121.28;;;48.38;;
41514;SDS011;27247;48.020;16.720;2022-12-15T12:36:11;133.10;;;51.97;;
41514;SDS011;27247;48.020;16.720;2022-12-15T12:40:29;122.05;;;47.65;;
41514;SDS011;27247;48.020;16.720;2022-12-15T12:44:50;125.20;;;50.47;;
41514;SDS011;27247;48.020;16.720;2022-12-15T12:49:22;114.90;;;47.83;;
41514;SDS011;27247;48.020;16.720;2022-12-15T12:53:39;126.20;;;50.53;;
41514;SDS011;27247;48.020;16.720;2022-12-15T12:57:51;123.22;;;51.78;;
41514;SDS011;27247;48.020;16.720;2022-12-15T13:10:44;125.38;;;49.38;;
41514;SDS011;27247;48.020;16.720;2022-12-15T13:14:56;120.60;;;49.30;;
41514;SDS011;27247;48.020;16.720;2022-12-15T13:19:07;116.30;;;49.40;;
41514;SDS011;27247;48.020;16.720;2022-12-15T13:27:35;116.95;;;46.13;;
41514;SDS011;27247;48.020;16.720;2022-12-15T13:35:58;123.70;;;46.70;;
41514;SDS011;27247;48.020;16.720;2022-12-15T13:44:41;114.55;;;49.20;;
41514;SDS011;27247;48.020;16.720;2022-12-15T13:53:40;115.57;;;46.35;;
41514;SDS011;27247;48.020;16.720;2022-12-15T13:57:59;116.95;;;47.60;;
41514;SDS011;27247;48.020;16.720;2022-12-15T14:02:31;120.47;;;49.95;;
41514;SDS011;27247;48.020;16.720;2022-12-15T14:06:45;112.43;;;46.63;;
41514;SDS011;27247;48.020;16.720;2022-12-15T14:11:21;119.90;;;50.15;;
41514;SDS011;27247;48.020;16.720;2022-12-15T14:15:33;116.68;;;47.47;;
41514;SDS011;27247;48.020;16.720;2022-12-15T14:19:45;118.78;;;47.08;;
41514;SDS011;27247;48.020;16.720;2022-12-15T14:23:57;114.32;;;47.10;;
41514;SDS011;27247;48.020;16.720;2022-12-15T14:28:22;113.07;;;48.50;;
41514;SDS011;27247;48.020;16.720;2022-12-15T14:32:34;108.20;;;44.08;;
41514;SDS011;27247;48.020;16.720;2022-12-15T14:36:44;114.07;;;46.72;;
41514;SDS011;27247;48.020;16.720;2022-12-15T14:40:56;119.07;;;49.00;;
41514;SDS011;27247;48.020;16.720;2022-12-15T14:45:17;110.72;;;46.38;;
41514;SDS011;27247;48.020;16.720;2022-12-15T14:49:30;110.72;;;46.67;;
41514;SDS011;27247;48.020;16.720;2022-12-15T14:53:47;125.53;;;49.42;;
41514;SDS011;27247;48.020;16.720;2022-12-15T14:57:58;120.03;;;49.85;;
41514;SDS011;27247;48.020;16.720;2022-12-15T15:02:14;124.88;;;48.78;;
41514;SDS011;27247;48.020;16.720;2022-12-15T15:06:30;142.15;;;53.08;;
41514;SDS011;27247;48.020;16.720;2022-12-15T15:10:46;141.18;;;52.38;;
41514;SDS011;27247;48.020;16.720;2022-12-15T15:19:10;139.83;;;54.57;;
41514;SDS011;27247;48.020;16.720;2022-12-15T15:23:31;137.80;;;53.92;;
41514;SDS011;27247;48.020;16.720;2022-12-15T15:27:42;134.48;;;52.63;;
41514;SDS011;27247;48.020;16.720;2022-12-15T15:32:03;130.13;;;52.47;;
41514;SDS011;27247;48.020;16.720;2022-12-15T15:36:31;141.52;;;52.35;;
41514;SDS011;27247;48.020;16.720;2022-12-15T15:40:50;143.95;;;56.78;;
41514;SDS011;27247;48.020;16.720;2022-12-15T15:45:01;143.05;;;54.03;;
41514;SDS011;27247;48.020;16.720;2022-12-15T15:49:12;151.32;;;53.55;;
41514;SDS011;27247;48.020;16.720;2022-12-15T15:53:26;139.65;;;53.28;;
41514;SDS011;27247;48.020;16.720;2022-12-15T15:57:40;145.65;;;53.63;;
41514;SDS011;27247;48.020;16.720;2022-12-15T16:01:52;148.93;;;54.08;;
41514;SDS011;27247;48.020;16.720;2022-12-15T16:06:04;152.20;;;52.95;;
41514;SDS011;27247;48.020;16.720;2022-12-15T16:10:19;156.68;;;55.78;;
41514;SDS011;27247;48.020;16.720;2022-12-15T16:14:30;160.90;;;55.13;;
41514;SDS011;27247;48.020;16.720;2022-12-15T16:18:40;158.15;;;54.60;;
41514;SDS011;27247;48.020;16.720;2022-12-15T16:22:52;149.18;;;54.17;;
41514;SDS011;27247;48.020;16.720;2022-12-15T16:27:07;152.57;;;53.40;;
41514;SDS011;27247;48.020;16.720;2022-12-15T16:31:27;155.20;;;55.05;;
41514;SDS011;27247;48.020;16.720;2022-12-15T16:35:48;165.65;;;55.50;;
41514;SDS011;27247;48.020;16.720;2022-12-15T16:39:59;156.60;;;52.20;;
41514;SDS011;27247;48.020;16.720;2022-12-15T16:44:10;152.57;;;54.15;;
41514;SDS011;27247;48.020;16.720;2022-12-15T16:48:21;157.55;;;54.13;;
41514;SDS011;27247;48.020;16.720;2022-12-15T16:52:31;151.15;;;54.45;;
41514;SDS011;27247;48.020;16.720;2022-12-15T16:56:42;154.37;;;54.47;;
41514;SDS011;27247;48.020;16.720;2022-12-15T17:00:53;152.60;;;52.85;;
41514;SDS011;27247;48.020;16.720;2022-12-15T17:05:04;145.32;;;53.58;;
41514;SDS011;27247;48.020;16.720;2022-12-15T17:09:17;154.45;;;54.90;;
41514;SDS011;27247;48.020;16.720;2022-12-15T17:13:32;160.45;;;58.50;;
41514;SDS011;27247;48.020;16.720;2022-12-15T17:17:45;153.05;;;55.92;;
41514;SDS011;27247;48.020;16.720;2022-12-15T17:21:55;153.55;;;55.78;;
41514;SDS011;27247;48.020;16.720;2022-12-15T17:26:06;145.55;;;54.75;;
41514;SDS011;27247;48.020;16.720;2022-12-15T17:30:16;161.02;;;56.00;;
41514;SDS011;27247;48.020;16.720;2022-12-15T17:34:28;149.85;;;52.60;;
41514;SDS011;27247;48.020;16.720;2022-12-15T17:38:40;149.55;;;53.90;;
41514;SDS011;27247;48.020;16.720;2022-12-15T17:42:50;158.82;;;54.15;;
41514;SDS011;27247;48.020;16.720;2022-12-15T17:47:01;152.82;;;54.53;;
41514;SDS011;27247;48.020;16.720;2022-12-15T17:51:14;142.77;;;51.38;;
41514;SDS011;27247;48.020;16.720;2022-12-15T17:55:27;151.20;;;56.85;;
41514;SDS011;27247;48.020;16.720;2022-12-15T17:59:38;155.13;;;51.95;;
41514;SDS011;27247;48.020;16.720;2022-12-15T18:03:49;154.57;;;54.22;;
41514;SDS011;27247;48.020;16.720;2022-12-15T18:08:00;171.63;;;53.90;;
41514;SDS011;27247;48.020;16.720;2022-12-15T18:12:17;155.55;;;55.30;;
41514;SDS011;27247;48.020;16.720;2022-12-15T18:16:33;164.45;;;56.45;;
41514;SDS011;27247;48.020;16.720;2022-12-15T18:20:44;170.05;;;58.10;;
41514;SDS011;27247;48.020;16.720;2022-12-15T18:24:54;163.77;;;54.92;;
41514;SDS011;27247;48.020;16.720;2022-12-15T18:29:11;159.77;;;56.20;;
41514;SDS011;27247;48.020;16.720;2022-12-15T18:33:23;154.95;;;53.85;;
41514;SDS011;27247;48.020;16.720;2022-12-15T18:37:33;151.70;;;53.42;;
41514;SDS011;27247;48.020;16.720;2022-12-15T18:41:45;151.95;;;53.88;;
41514;SDS011;27247;48.020;16.720;2022-12-15T18:45:56;153.85;;;54.83;;
41514;SDS011;27247;48.020;16.720;2022-12-15T18:50:17;160.73;;;56.67;;
41514;SDS011;27247;48.020;16.720;2022-12-15T18:54:31;172.05;;;60.20;;
41514;SDS011;27247;48.020;16.720;2022-12-15T18:58:41;180.60;;;59.55;;
41514;SDS011;27247;48.020;16.720;2022-12-15T19:02:53;177.00;;;57.88;;
41514;SDS011;27247;48.020;16.720;2022-12-15T19:07:07;184.40;;;60.67;;
41514;SDS011;27247;48.020;16.720;2022-12-15T19:11:24;183.60;;;59.13;;
41514;SDS011;27247;48.020;16.720;2022-12-15T19:15:40;178.30;;;59.72;;
41514;SDS011;27247;48.020;16.720;2022-12-15T19:19:50;173.88;;;58.05;;
41514;SDS011;27247;48.020;16.720;2022-12-15T19:24:24;186.93;;;61.33;;
41514;SDS011;27247;48.020;16.720;2022-12-15T19:29:15;174.32;;;58.78;;
41514;SDS011;27247;48.020;16.720;2022-12-15T19:33:28;199.00;;;61.95;;
41514;SDS011;27247;48.020;16.720;2022-12-15T19:37:39;174.40;;;58.88;;
41514;SDS011;27247;48.020;16.720;2022-12-15T19:41:52;186.68;;;61.22;;
41514;SDS011;27247;48.020;16.720;2022-12-15T19:46:02;172.57;;;58.80;;
41514;SDS011;27247;48.020;16.720;2022-12-15T19:50:17;190.63;;;62.97;;
41514;SDS011;27247;48.020;16.720;2022-12-15T19:54:31;186.05;;;67.60;;
41514;SDS011;27247;48.020;16.720;2022-12-15T19:58:42;195.65;;;68.55;;
41514;SDS011;27247;48.020;16.720;2022-12-15T20:02:53;195.23;;;65.10;;
41514;SDS011;27247;48.020;16.720;2022-12-15T20:07:04;181.60;;;62.30;;
41514;SDS011;27247;48.020;16.720;2022-12-15T20:15:38;187.52;;;62.13;;
41514;SDS011;27247;48.020;16.720;2022-12-15T20:19:49;184.80;;;61.88;;
41514;SDS011;27247;48.020;16.720;2022-12-15T20:24:01;202.55;;;67.20;;
41514;SDS011;27247;48.020;16.720;2022-12-15T20:28:18;159.35;;;57.92;;
41514;SDS011;27247;48.020;16.720;2022-12-15T20:32:33;156.52;;;58.45;;
41514;SDS011;27247;48.020;16.720;2022-12-15T20:36:43;160.65;;;60.55;;
41514;SDS011;27247;48.020;16.720;2022-12-15T20:40:56;161.07;;;58.15;;
41514;SDS011;27247;48.020;16.720;2022-12-15T20:45:08;158.32;;;58.45;;
41514;SDS011;27247;48.020;16.720;2022-12-15T20:49:22;169.75;;;58.38;;
41514;SDS011;27247;48.020;16.720;2022-12-15T20:53:33;142.57;;;54.92;;
41514;SDS011;27247;48.020;16.720;2022-12-15T20:57:43;176.50;;;60.03;;
41514;SDS011;27247;48.020;16.720;2022-12-15T21:01:53;159.77;;;58.63;;
41514;SDS011;27247;48.020;16.720;2022-12-15T21:06:04;164.50;;;57.35;;
41514;SDS011;27247;48.020;16.720;2022-12-15T21:10:15;164.25;;;59.33;;
41514;SDS011;27247;48.020;16.720;2022-12-15T21:14:29;167.02;;;58.95;;
41514;SDS011;27247;48.020;16.720;2022-12-15T21:18:39;174.03;;;57.53;;
41514;SDS011;27247;48.020;16.720;2022-12-15T21:22:49;173.20;;;57.17;;
41514;SDS011;27247;48.020;16.720;2022-12-15T21:27:00;165.52;;;58.28;;
41514;SDS011;27247;48.020;16.720;2022-12-15T21:31:10;179.43;;;59.97;;
41514;SDS011;27247;48.020;16.720;2022-12-15T21:35:20;180.52;;;58.30;;
41514;SDS011;27247;48.020;16.720;2022-12-15T21:39:34;178.90;;;60.28;;
41514;SDS011;27247;48.020;16.720;2022-12-15T21:43:46;172.20;;;58.45;;
41514;SDS011;27247;48.020;16.720;2022-12-15T21:47:57;177.82;;;59.10;;
41514;SDS011;27247;48.020;16.720;2022-12-15T21:56:36;189.43;;;63.30;;
41514;SDS011;27247;48.020;16.720;2022-12-15T22:00:46;187.80;;;62.03;;
41514;SDS011;27247;48.020;16.720;2022-12-15T22:04:57;183.63;;;59.58;;
41514;SDS011;27247;48.020;16.720;2022-12-15T22:09:08;198.38;;;61.08;;
41514;SDS011;27247;48.020;16.720;2022-12-15T22:13:20;198.30;;;59.97;;
41514;SDS011;27247;48.020;16.720;2022-12-15T22:17:31;175.57;;;61.35;;
41514;SDS011;27247;48.020;16.720;2022-12-15T22:21:42;214.48;;;65.50;;
41514;SDS011;27247;48.020;16.720;2022-12-15T22:25:52;183.23;;;60.85;;
41514;SDS011;27247;48.020;16.720;2022-12-15T22:30:05;205.20;;;60.92;;
41514;SDS011;27247;48.020;16.720;2022-12-15T22:34:24;207.38;;;62.17;;
41514;SDS011;27247;48.020;16.720;2022-12-15T22:38:35;209.63;;;63.03;;
41514;SDS011;27247;48.020;16.720;2022-12-15T22:42:47;207.50;;;63.35;;
41514;SDS011;27247;48.020;16.720;2022-12-15T22:47:01;202.45;;;65.38;;
41514;SDS011;27247;48.020;16.720;2022-12-15T22:51:14;208.30;;;62.45;;
41514;SDS011;27247;48.020;16.720;2022-12-15T22:55:25;219.43;;;65.53;;
41514;SDS011;27247;48.020;16.720;2022-12-15T22:59:37;211.98;;;61.90;;
41514;SDS011;27247;48.020;16.720;2022-12-15T23:03:52;213.23;;;61.33;;
41514;SDS011;27247;48.020;16.720;2022-12-15T23:08:03;216.70;;;60.08;;
41514;SDS011;27247;48.020;16.720;2022-12-15T23:12:13;188.73;;;58.92;;
41514;SDS011;27247;48.020;16.720;2022-12-15T23:16:24;198.77;;;58.38;;
41514;SDS011;27247;48.020;16.720;2022-12-15T23:20:35;176.13;;;53.67;;
41514;SDS011;27247;48.020;16.720;2022-12-15T23:24:45;154.57;;;50.30;;
41514;SDS011;27247;48.020;16.720;2022-12-15T23:28:56;158.00;;;51.83;;
41514;SDS011;27247;48.020;16.720;2022-12-15T23:33:06;147.70;;;50.67;;
41514;SDS011;27247;48.020;16.720;2022-12-15T23:37:16;123.43;;;45.53;;
41514;SDS011;27247;48.020;16.720;2022-12-15T23:41:27;129.43;;;49.35;;
41514;SDS011;27247;48.020;16.720;2022-12-15T23:45:38;113.45;;;44.17;;
41514;SDS011;27247;48.020;16.720;2022-12-15T23:49:50;105.38;;;40.90;;
41514;SDS011;27247;48.020;16.720;2022-12-15T23:54:00;97.60;;;38.30;;
41514;SDS011;27247;48.020;16.720;2022-12-15T23:58:10;86.97;;;35.47;;
